Time;durP1;ratioP1;P1;durP2;ratioP2;P2;SDS_P1;SDS_P2;PMS_P1;PMS_P2;Temp;Humidity;BMP_temperature;BMP_pressure;BME280_temperature;BME280_humidity;BME280_pressure;Samples;Min_cycle;Max_cycle;Signal;HPM_P1;HPM_P2
2023/01/27 00:00:06;;;;;;;;;;;5.30;58.20;;;3.48;62.71;101825.63;12235592;19;19921;-82
2023/01/27 00:04:13;;;;;;;;;;;5.30;58.20;;;3.47;62.84;101812.69;12243981;19;19946;-82
2023/01/27 00:08:15;;;;;;;;;;;5.40;58.30;;;3.37;62.86;101800.72;12242627;19;19923;-84
2023/01/27 00:16:39;;;;;;;;;;;5.30;58.20;;;3.54;63.03;101825.56;12240011;19;20410;-84
2023/01/27 00:25:18;;;;;;;;;;;5.40;58.30;;;3.57;62.69;101826.41;12235534;19;19914;-84
2023/01/27 00:29:20;;;;;;;;;;;5.30;58.20;;;3.59;62.80;101834.97;12244371;19;19921;-84
2023/01/27 00:33:27;;;;;;;;;;;5.30;58.20;;;3.21;62.70;101767.28;12251664;19;19923;-84
2023/01/27 00:37:29;;;;;;;;;;;5.20;58.20;;;3.53;62.75;101823.81;12252712;19;19911;-84
2023/01/27 00:41:32;;;;;;;;;;;5.30;58.20;;;3.46;62.78;101809.28;12255143;19;19914;-84
2023/01/27 00:46:07;;;;;;;;;;;5.20;58.30;;;3.58;62.92;101830.69;12252900;19;20343;-84
2023/01/27 00:50:02;;;;;;;;;;;5.20;58.20;;;3.58;62.90;101830.69;12254770;19;20263;-84
2023/01/27 00:54:04;;;;;;;;;;;5.20;58.20;;;3.53;62.80;101822.97;12254459;19;20308;-84
2023/01/27 00:58:06;;;;;;;;;;;5.30;58.30;;;3.58;62.78;101833.28;12252765;19;20317;-84
2023/01/27 01:02:08;;;;;;;;;;;5.20;58.30;;;3.41;62.79;101805.88;12248956;19;19922;-84
2023/01/27 01:06:11;;;;;;;;;;;5.30;58.40;;;3.20;62.80;101777.63;12247115;19;19931;-84
2023/01/27 01:10:13;;;;;;;;;;;5.30;58.30;;;3.52;62.92;101831.59;12250415;19;19926;-84
2023/01/27 01:14:14;;;;;;;;;;;5.20;58.30;;;3.48;62.84;101825.63;12248141;19;19956;-84
2023/01/27 01:18:16;;;;;;;;;;;5.60;58.50;;;3.48;62.63;101830.78;12246365;19;19910;-84
2023/01/27 01:22:17;;;;;;;;;;;5.20;58.30;;;3.16;62.65;101788.84;12248211;19;19954;-85
2023/01/27 01:26:19;;;;;;;;;;;5.20;58.30;;;3.55;62.87;101857.41;12248840;19;19915;-84
2023/01/27 01:30:25;;;;;;;;;;;5.30;58.40;;;3.52;62.70;101854.84;12247749;19;20615;-84
2023/01/27 01:34:26;;;;;;;;;;;5.20;58.40;;;2.99;62.78;101758.00;12249737;19;19923;-84
2023/01/27 01:38:28;;;;;;;;;;;5.20;58.50;;;3.45;62.85;101828.19;12245025;19;19915;-84
2023/01/27 01:42:54;;;;;;;;;;;5.20;58.40;;;3.57;62.71;101854.81;12248824;19;20248;-84
2023/01/27 01:46:55;;;;;;;;;;;5.20;58.50;;;3.50;62.77;101849.69;12243925;19;20252;-84
2023/01/27 01:51:09;;;;;;;;;;;5.20;58.50;;;3.43;62.92;101832.53;12249356;19;20340;-84
2023/01/27 01:55:11;;;;;;;;;;;5.20;58.50;;;3.58;62.72;101856.50;12247630;19;19978;-84
2023/01/27 01:59:24;;;;;;;;;;;5.20;58.50;;;3.54;62.98;101850.53;12084461;19;3213984;-84
2023/01/27 02:03:28;;;;;;;;;;;5.20;58.50;;;3.59;62.89;101853.91;12253109;19;20277;-83
2023/01/27 02:07:56;;;;;;;;;;;5.30;58.50;;;3.57;62.77;101855.66;12248826;19;20516;-84
2023/01/27 02:11:59;;;;;;;;;;;5.30;58.50;;;3.58;62.73;101859.09;12252134;19;20251;-84
2023/01/27 02:16:01;;;;;;;;;;;5.30;58.50;;;3.50;62.87;101838.50;12252183;19;19924;-84
2023/01/27 02:20:13;;;;;;;;;;;5.50;58.50;;;3.61;62.77;101859.06;12251708;19;19911;-83
2023/01/27 02:24:18;;;;;;;;;;;5.30;58.40;;;3.40;62.88;101811.03;12249767;19;19906;-84
2023/01/27 02:28:20;;;;;;;;;;;5.30;58.40;;;3.47;62.79;101831.63;12242671;19;19953;-84
2023/01/27 02:32:25;;;;;;;;;;;5.50;58.50;;;3.56;62.77;101848.75;12249491;19;19960;-84
2023/01/27 02:36:32;;;;;;;;;;;5.30;58.40;;;3.56;62.87;101851.34;12246017;19;20328;-84
2023/01/27 02:40:35;;;;;;;;;;;5.30;58.40;;;3.57;62.80;101834.16;12248477;19;19921;-83
2023/01/27 02:44:37;;;;;;;;;;;5.30;58.40;;;3.64;62.99;101840.97;12244508;19;20265;-83
2023/01/27 02:48:39;;;;;;;;;;;5.70;58.60;;;3.65;62.88;101847.84;12249120;19;19926;-83
2023/01/27 02:52:40;;;;;;;;;;;5.40;58.40;;;3.63;63.06;101859.91;12246552;19;19918;-84
2023/01/27 02:56:42;;;;;;;;;;;5.40;58.40;;;3.70;62.98;101867.59;12245935;19;19926;-84
2023/01/27 03:00:47;;;;;;;;;;;5.40;58.40;;;3.73;62.75;101875.34;12248726;19;19947;-83
2023/01/27 03:04:48;;;;;;;;;;;5.40;58.30;;;3.71;62.90;101858.97;12248207;19;19918;-83
2023/01/27 03:08:50;;;;;;;;;;;5.40;58.30;;;3.09;62.93;101765.66;12247644;19;20332;-83
2023/01/27 03:12:52;;;;;;;;;;;5.40;58.30;;;3.70;62.79;101866.72;12249096;19;19923;-83
2023/01/27 03:21:16;;;;;;;;;;;5.50;58.30;;;3.68;62.83;101865.91;12247582;19;19919;-83
2023/01/27 03:25:18;;;;;;;;;;;5.50;58.30;;;3.72;62.94;101870.16;12244629;19;20361;-84
2023/01/27 03:33:41;;;;;;;;;;;5.40;58.20;;;3.63;62.84;101875.41;12249240;19;19929;-84
2023/01/27 03:46:52;;;;;;;;;;;5.60;58.30;;;3.55;62.72;101859.97;12242301;19;19914;-83
2023/01/27 03:50:58;;;;;;;;;;;5.70;58.70;;;3.70;62.92;101882.22;12247363;19;19921;-83
2023/01/27 03:54:59;;;;;;;;;;;5.40;58.20;;;3.59;62.87;101855.63;12248331;19;19921;-84
2023/01/27 03:59:01;;;;;;;;;;;5.40;58.20;;;3.71;62.96;101877.06;12246705;19;19919;-83
2023/01/27 04:07:23;;;;;;;;;;;5.40;58.20;;;3.70;62.76;101875.34;12247826;19;19923;-83
2023/01/27 04:15:44;;;;;;;;;;;5.40;58.20;;;3.73;62.89;101882.22;12257286;19;20233;-83
2023/01/27 04:19:46;;;;;;;;;;;5.50;58.20;;;3.75;62.82;101885.63;12259125;19;19914;-84
2023/01/27 04:23:47;;;;;;;;;;;5.50;58.30;;;3.69;62.81;101865.03;12257556;19;19919;-83
2023/01/27 04:27:49;;;;;;;;;;;5.50;58.30;;;3.74;62.99;101874.44;12252458;19;19927;-83
2023/01/27 04:31:50;;;;;;;;;;;5.60;58.30;;;3.81;62.85;101883.03;12257798;19;19918;-84
2023/01/27 04:35:52;;;;;;;;;;;5.50;58.20;;;3.76;62.97;101888.22;12254420;19;19919;-83
2023/01/27 04:39:53;;;;;;;;;;;5.50;58.20;;;3.82;62.86;101895.06;12256658;19;19922;-83
2023/01/27 04:43:55;;;;;;;;;;;5.50;58.20;;;3.76;62.96;101884.78;12258708;19;19918;-83
2023/01/27 04:47:57;;;;;;;;;;;5.50;58.20;;;3.68;62.72;101878.81;12252129;19;20407;-83
2023/01/27 04:51:58;;;;;;;;;;;5.50;58.20;;;3.77;62.97;101883.91;12258653;19;19914;-83
2023/01/27 04:56:03;;;;;;;;;;;5.60;58.30;;;3.65;62.74;101873.69;12247854;19;19915;-81
2023/01/27 05:00:05;;;;;;;;;;;5.50;58.20;;;3.32;62.92;101822.28;12259274;19;19918;-81
2023/01/27 05:04:06;;;;;;;;;;;5.60;58.30;;;3.35;62.91;101813.66;12253824;19;19923;-82
2023/01/27 05:08:11;;;;;;;;;;;5.60;58.30;;;3.41;62.82;101828.25;12249346;19;19926;-82
2023/01/27 05:12:12;;;;;;;;;;;5.60;58.40;;;3.29;62.91;101818.84;12255422;19;19925;-82
2023/01/27 05:16:20;;;;;;;;;;;5.70;58.40;;;3.68;62.85;101881.41;12252650;19;19918;-82
2023/01/27 05:20:23;;;;;;;;;;;5.60;58.30;;;3.35;62.86;101828.28;12255098;19;19933;-82
2023/01/27 05:24:25;;;;;;;;;;;5.60;58.40;;;3.32;62.89;101826.56;12253882;19;19923;-82
2023/01/27 05:28:37;;;;;;;;;;;5.80;58.50;;;3.49;62.96;101855.72;12250732;19;19914;-83
2023/01/27 05:32:39;;;;;;;;;;;5.60;58.40;;;3.47;62.91;101849.69;12254538;19;19915;-83
2023/01/27 05:36:40;;;;;;;;;;;5.60;58.40;;;3.47;62.75;101859.19;12251883;19;19925;-83
2023/01/27 05:40:56;;;;;;;;;;;5.80;58.50;;;3.31;63.10;101823.13;12254581;19;19931;-83
2023/01/27 05:44:58;;;;;;;;;;;5.80;58.50;;;3.39;62.77;101835.16;12253410;19;20302;-82
2023/01/27 05:49:01;;;;;;;;;;;5.80;58.50;;;3.46;63.07;101852.31;12255961;19;20278;-83
2023/01/27 05:53:03;;;;;;;;;;;5.70;58.40;;;3.51;62.91;101855.69;12254908;19;19915;-83
2023/01/27 05:57:05;;;;;;;;;;;5.80;58.60;;;3.38;63.02;101841.19;12254399;19;19926;-83
2023/01/27 06:01:08;;;;;;;;;;;5.90;58.60;;;3.37;62.92;101827.41;12256479;19;19917;-83
2023/01/27 06:05:12;;;;;;;;;;;5.70;58.40;;;3.38;62.82;101829.13;12253192;19;19914;-83
2023/01/27 06:09:16;;;;;;;;;;;5.80;58.50;;;3.53;63.08;101859.97;12255085;19;20380;-83
2023/01/27 06:13:22;;;;;;;;;;;5.80;58.40;;;3.79;62.94;101907.16;12255037;19;19936;-82
2023/01/27 06:17:25;;;;;;;;;;;5.70;58.40;;;3.41;63.07;101836.84;12250958;19;19922;-83
2023/01/27 06:21:27;;;;;;;;;;;5.70;58.40;;;3.69;63.11;101889.13;12254625;19;19937;-83
2023/01/27 06:25:29;;;;;;;;;;;5.80;58.50;;;3.56;62.91;101879.75;12251389;19;19933;-83
2023/01/27 06:29:38;;;;;;;;;;;6.00;58.60;;;3.58;62.94;101875.44;12252899;19;19918;-83
2023/01/27 06:33:40;;;;;;;;;;;5.80;58.60;;;3.85;63.01;101915.69;12253688;19;19919;-83
2023/01/27 06:37:45;;;;;;;;;;;5.80;58.50;;;3.59;62.93;101871.13;12249770;19;19911;-83
2023/01/27 06:41:48;;;;;;;;;;;5.70;58.80;;;3.67;63.04;101890.00;12254009;19;20316;-83
2023/01/27 06:45:50;;;;;;;;;;;5.70;58.40;;;3.81;62.98;101915.72;12252974;19;19915;-83
2023/01/27 06:49:52;;;;;;;;;;;5.80;58.50;;;3.36;63.00;101843.75;12254006;19;19926;-83
2023/01/27 06:53:54;;;;;;;;;;;5.80;58.50;;;3.62;63.13;101887.47;12254938;19;19911;-83
2023/01/27 06:57:55;;;;;;;;;;;6.00;58.60;;;4.03;63.07;101963.81;12252793;19;19938;-83
2023/01/27 07:01:57;;;;;;;;;;;5.80;58.50;;;3.40;63.00;101854.91;12253503;19;20273;-84
2023/01/27 07:05:58;;;;;;;;;;;5.60;58.40;;;3.77;63.09;101920.06;12256399;19;20343;-83
2023/01/27 07:10:00;;;;;;;;;;;6.00;58.60;;;3.69;62.96;101912.38;12252208;19;19915;-83
2023/01/27 07:14:01;;;;;;;;;;;5.80;58.50;;;4.02;63.07;101971.56;12251805;19;19926;-84
2023/01/27 07:18:03;;;;;;;;;;;5.80;58.40;;;3.85;63.24;101932.94;12246868;19;19926;-83
2023/01/27 07:22:05;;;;;;;;;;;5.80;58.40;;;3.94;63.02;101941.47;12248970;19;19926;-83
2023/01/27 07:26:06;;;;;;;;;;;5.80;58.50;;;3.61;63.16;101906.41;12245901;19;19955;-83
2023/01/27 07:30:08;;;;;;;;;;;5.80;58.40;;;3.90;63.16;101942.34;12256350;19;20605;-84
2023/01/27 07:34:10;;;;;;;;;;;5.90;58.50;;;4.02;62.98;101959.47;12256016;19;19982;-83
2023/01/27 07:38:11;;;;;;;;;;;5.90;58.50;;;4.02;63.05;101963.78;12255530;19;19919;-83
2023/01/27 07:42:13;;;;;;;;;;;5.90;58.60;;;3.99;63.06;101956.94;12249978;19;19977;-84
2023/01/27 07:46:14;;;;;;;;;;;5.90;58.50;;;3.71;63.07;101912.38;12244220;19;20281;-84
2023/01/27 07:50:15;;;;;;;;;;;6.20;58.70;;;4.09;63.22;101975.81;12248954;19;19926;-84
2023/01/27 07:54:17;;;;;;;;;;;5.90;58.60;;;4.10;62.98;101990.44;12246238;19;19918;-83
2023/01/27 07:58:19;;;;;;;;;;;5.90;58.60;;;4.15;63.09;101999.03;12242997;19;20322;-83
2023/01/27 08:02:21;;;;;;;;;;;5.90;58.60;;;4.11;63.14;101987.84;12247153;19;20368;-84
2023/01/27 08:06:23;;;;;;;;;;;6.00;58.60;;;4.02;63.13;101979.31;12244329;19;19922;-85
2023/01/27 08:10:24;;;;;;;;;;;5.90;58.60;;;3.84;63.08;101942.41;12249532;19;19921;-85
2023/01/27 08:14:26;;;;;;;;;;;5.90;58.70;;;3.97;62.84;101963.84;12248900;19;19927;-83
2023/01/27 08:18:28;;;;;;;;;;;6.00;58.80;;;4.16;62.95;101996.44;12237125;19;19982;-83
2023/01/27 08:22:29;;;;;;;;;;;6.00;58.80;;;4.12;63.19;101981.81;12240046;19;19922;-83
2023/01/27 08:26:31;;;;;;;;;;;6.00;59.00;;;4.14;63.33;101985.25;12239362;19;19934;-83
2023/01/27 08:30:32;;;;;;;;;;;6.00;59.00;;;4.24;62.99;102006.72;12240331;19;19926;-83
2023/01/27 08:34:33;;;;;;;;;;;6.00;59.10;;;4.30;63.01;102010.97;12241082;19;19915;-83
2023/01/27 08:38:36;;;;;;;;;;;6.00;59.10;;;4.21;63.04;102001.56;12242381;19;19918;-84
2023/01/27 08:42:38;;;;;;;;;;;6.00;59.30;;;4.23;63.06;102002.41;12242396;19;20023;-84
2023/01/27 08:46:39;;;;;;;;;;;6.10;59.20;;;3.83;63.15;101932.94;12239529;19;20362;-83
2023/01/27 08:50:42;;;;;;;;;;;6.00;59.20;;;4.08;63.19;101972.38;12241532;19;20368;-84
2023/01/27 08:54:44;;;;;;;;;;;6.10;59.30;;;4.32;63.24;102012.69;12247278;19;19919;-83
2023/01/27 08:58:47;;;;;;;;;;;6.10;59.70;;;4.35;63.09;102019.56;12250821;19;19957;-83
2023/01/27 09:02:51;;;;;;;;;;;6.10;59.40;;;4.33;63.27;102008.38;12252687;19;19911;-83
2023/01/27 09:06:53;;;;;;;;;;;6.20;59.50;;;4.11;63.27;101966.31;12250121;19;19946;-84
2023/01/27 09:10:54;;;;;;;;;;;6.20;59.70;;;4.51;63.07;102028.91;12253820;19;20377;-84
2023/01/27 09:14:57;;;;;;;;;;;6.20;59.50;;;4.36;63.17;102006.59;12250962;19;20485;-84
2023/01/27 09:18:58;;;;;;;;;;;6.30;59.80;;;4.40;63.05;102000.53;12251978;19;19942;-84
2023/01/27 09:23:00;;;;;;;;;;;6.30;60.10;;;4.35;63.10;101986.78;12254263;19;19911;-84
2023/01/27 09:27:02;;;;;;;;;;;6.30;60.00;;;4.16;63.31;101954.22;12244732;19;19919;-84
2023/01/27 09:31:04;;;;;;;;;;;6.40;59.90;;;4.65;63.31;102041.69;12253559;19;19919;-83
2023/01/27 09:35:06;;;;;;;;;;;6.40;60.00;;;4.57;63.38;102022.81;12250562;19;20339;-83
2023/01/27 09:39:07;;;;;;;;;;;6.50;60.90;;;4.40;63.38;101990.19;12252765;19;19923;-84
2023/01/27 09:43:27;;;;;;;;;;;6.50;60.50;;;4.38;63.22;101981.59;12254522;19;19943;-84
2023/01/27 09:47:32;;;;;;;;;;;6.60;60.40;;;4.97;63.44;102063.78;12238179;19;20721;-83
2023/01/27 09:51:52;;;;;;;;;;;6.60;61.90;;;5.02;63.44;102068.09;12229833;19;19915;-83
2023/01/27 09:56:14;;;;;;;;;;;6.70;61.60;;;5.06;63.22;102067.16;12249390;19;20270;-83
2023/01/27 10:00:43;;;;;;;;;;;6.70;61.30;;;4.97;63.45;102048.25;12252918;19;19911;-83
2023/01/27 10:04:57;;;;;;;;;;;6.70;61.90;;;5.05;63.16;102057.69;12246072;19;20447;-83
2023/01/27 10:08:59;;;;;;;;;;;6.80;61.50;;;5.20;63.47;102063.56;12236472;19;19930;-83
2023/01/27 10:13:09;;;;;;;;;;;6.80;61.30;;;5.23;63.46;102061.78;12249233;19;20323;-83
2023/01/27 10:17:33;;;;;;;;;;;6.90;61.80;;;5.21;63.30;102058.38;12246416;19;19923;-83
2023/01/27 10:21:43;;;;;;;;;;;6.90;62.50;;;5.29;63.60;102066.91;12249078;19;19922;-83
2023/01/27 10:26:15;;;;;;;;;;;6.90;62.60;;;5.33;63.49;102073.75;12249777;19;19948;-83
2023/01/27 10:30:23;;;;;;;;;;;7.00;62.60;;;5.29;63.45;102053.09;12241252;19;19919;-83
2023/01/27 10:34:36;;;;;;;;;;;7.00;62.00;;;5.40;63.49;102065.91;12248164;19;19926;-83
2023/01/27 10:38:49;;;;;;;;;;;7.10;62.00;;;5.48;63.47;102074.44;12250888;19;19951;-83
2023/01/27 10:43:28;;;;;;;;;;;7.10;62.60;;;5.50;63.57;102075.28;12249897;19;19922;-83
2023/01/27 10:47:44;;;;;;;;;;;7.10;62.20;;;5.54;63.36;102077.84;12247581;19;19922;-83
2023/01/27 10:51:55;;;;;;;;;;;7.20;61.90;;;5.52;63.55;102069.22;12248745;19;19924;-83
2023/01/27 10:56:03;;;;;;;;;;;7.20;62.10;;;5.64;63.34;102078.56;12248610;19;19914;-83
2023/01/27 11:00:12;;;;;;;;;;;7.30;63.30;;;5.62;63.47;102074.28;12250240;19;19915;-83
2023/01/27 11:04:20;;;;;;;;;;;7.30;63.40;;;5.64;63.51;102078.56;12248731;19;20433;-83
2023/01/27 11:08:26;;;;;;;;;;;7.30;64.00;;;5.60;63.47;102055.31;12247267;19;20612;-83
2023/01/27 11:12:33;;;;;;;;;;;7.40;63.90;;;5.70;63.45;102075.91;12248339;19;19921;-82
2023/01/27 11:16:37;;;;;;;;;;;7.60;63.60;;;5.62;63.48;102057.00;12241884;19;19970;-83
2023/01/27 11:20:42;;;;;;;;;;;7.40;63.00;;;5.81;63.58;102087.88;12244226;19;19915;-83
2023/01/27 11:24:46;;;;;;;;;;;7.50;63.70;;;5.76;63.38;102070.63;12244001;19;20333;-83
2023/01/27 11:29:13;;;;;;;;;;;7.50;63.70;;;5.80;63.63;102062.81;12244064;19;19926;-83
2023/01/27 11:33:57;;;;;;;;;;;7.50;64.00;;;5.91;63.69;102079.94;12244198;19;19915;-83
2023/01/27 11:37:58;;;;;;;;;;;7.50;63.70;;;5.89;63.50;102073.91;12242803;19;19922;-83
2023/01/27 11:42:00;;;;;;;;;;;7.50;64.30;;;5.89;63.53;102067.88;12246493;19;20308;-83
2023/01/27 11:46:03;;;;;;;;;;;7.50;63.40;;;5.93;63.62;102069.53;12249972;19;19918;-85
2023/01/27 11:50:07;;;;;;;;;;;7.60;63.40;;;5.92;63.46;102065.25;12249491;19;19923;-83
2023/01/27 11:54:20;;;;;;;;;;;7.60;63.40;;;5.92;63.63;102062.66;12247612;19;19918;-84
2023/01/27 11:58:24;;;;;;;;;;;7.60;64.30;;;5.91;63.68;102060.91;12243262;19;19978;-84
2023/01/27 12:02:32;;;;;;;;;;;7.60;63.60;;;5.98;63.45;102063.44;12250132;19;19914;-82
2023/01/27 12:06:54;;;;;;;;;;;7.60;63.40;;;5.70;63.51;102018.88;12244638;19;19926;-83
2023/01/27 12:11:14;;;;;;;;;;;7.60;63.50;;;5.97;63.73;102064.34;12225943;19;20361;-82
2023/01/27 12:15:17;;;;;;;;;;;7.60;64.10;;;6.01;63.61;102064.28;12243368;19;19922;-83
2023/01/27 12:19:31;;;;;;;;;;;7.60;63.40;;;5.91;63.60;102046.25;12247960;19;20249;-82
2023/01/27 12:23:49;;;;;;;;;;;7.60;62.80;;;5.96;63.78;102048.78;12244524;19;19927;-83
2023/01/27 12:27:55;;;;;;;;;;;7.60;63.00;;;6.01;63.54;102049.56;12245894;19;19911;-82
2023/01/27 12:31:58;;;;;;;;;;;7.70;62.60;;;6.01;63.60;102057.34;12257570;19;20597;-83
2023/01/27 12:36:03;;;;;;;;;;;7.70;63.60;;;6.02;63.52;102045.25;12257993;19;19927;-83
2023/01/27 12:40:11;;;;;;;;;;;7.70;62.60;;;6.10;63.72;102059.81;12257610;19;19922;-82
2023/01/27 12:44:18;;;;;;;;;;;7.70;62.70;;;5.95;63.52;102037.56;12258521;19;19947;-83
2023/01/27 12:48:20;;;;;;;;;;;7.70;62.50;;;6.09;63.74;102046.88;12253646;19;19918;-83
2023/01/27 12:52:22;;;;;;;;;;;7.80;62.30;;;5.96;63.56;102031.47;12256817;19;19945;-83
2023/01/27 12:56:24;;;;;;;;;;;7.80;62.80;;;5.66;63.45;101977.47;12253098;19;19919;-83
2023/01/27 13:00:26;;;;;;;;;;;7.80;62.40;;;6.18;63.73;102059.69;12257070;19;19982;-82
2023/01/27 13:04:29;;;;;;;;;;;7.80;63.20;;;6.04;63.74;102046.94;12255645;19;19956;-84
2023/01/27 13:08:32;;;;;;;;;;;7.80;63.10;;;6.06;63.67;102060.75;12250677;19;20248;-83
2023/01/27 13:12:46;;;;;;;;;;;7.70;62.60;;;6.18;63.87;102080.44;12254003;19;20328;-83
2023/01/27 13:16:59;;;;;;;;;;;7.90;62.20;;;6.20;63.63;102083.88;12247149;19;19914;-83
2023/01/27 13:21:15;;;;;;;;;;;7.80;62.00;;;6.18;63.72;102080.44;12254562;19;19907;-84
2023/01/27 13:25:20;;;;;;;;;;;7.80;61.70;;;5.59;63.75;101989.69;12250510;19;19922;-83
2023/01/27 13:29:30;;;;;;;;;;;7.80;61.80;;;6.12;63.83;102071.00;12253291;19;19922;-83
2023/01/27 13:33:56;;;;;;;;;;;7.80;61.30;;;6.01;63.86;102048.72;12251437;19;19933;-83
2023/01/27 13:38:20;;;;;;;;;;;7.80;61.20;;;6.20;63.68;102069.16;12243868;19;19923;-85
2023/01/27 13:42:34;;;;;;;;;;;7.80;61.30;;;6.07;63.79;102061.59;12255856;19;20252;-84
2023/01/27 13:46:38;;;;;;;;;;;7.80;61.30;;;6.08;63.69;102064.19;12253531;19;19919;-86
2023/01/27 13:50:50;;;;;;;;;;;7.80;61.10;;;6.06;63.61;102065.06;12256704;19;19922;-84
2023/01/27 13:54:52;;;;;;;;;;;7.80;60.90;;;6.07;63.71;102075.41;12256658;19;19925;-84
2023/01/27 13:59:39;;;;;;;;;;;7.80;61.10;;;6.17;63.77;102097.75;12255309;19;19923;-84
2023/01/27 14:03:58;;;;;;;;;;;7.80;60.90;;;6.13;63.64;102096.09;12255531;19;19934;-84
2023/01/27 14:08:27;;;;;;;;;;;7.80;61.00;;;6.11;63.52;102097.84;12252477;19;19930;-83
2023/01/27 14:12:44;;;;;;;;;;;7.80;61.00;;;6.18;63.58;102112.44;12256956;19;19943;-83
2023/01/27 14:31:29;;;;;;;;;;;;;;;;;;;;;
2023/01/27 14:41:54;;;;;;;;;;;7.80;61.20;;;6.13;63.63;102123.72;12256303;19;19918;-83
2023/01/27 14:47:08;;;;;;;;;;;;;;;;;;;;;
2023/01/27 15:31:17;;;;;;;;;;;7.70;59.80;;;6.18;63.57;102138.38;12252679;19;19942;-83
2023/01/27 15:35:23;;;;;;;;;;;7.60;59.70;;;6.21;63.50;102147.81;12250760;19;19922;-83
2023/01/27 15:39:35;;;;;;;;;;;7.80;59.80;;;5.76;63.44;102087.91;12253233;19;19933;-83
2023/01/27 15:43:42;;;;;;;;;;;7.80;59.80;;;5.62;63.42;102074.28;12252575;19;19946;-83
2023/01/27 15:47:46;;;;;;;;;;;8.00;59.80;;;5.63;63.64;102095.00;12249040;19;19915;-83
2023/01/27 15:51:56;;;;;;;;;;;7.80;59.60;;;6.03;63.68;102151.53;12251446;19;19915;-83
2023/01/27 15:56:55;;;;;;;;;;;;;;;;;;;;;
2023/01/27 16:12:38;;;;;;;;;;;7.60;59.20;;;5.71;63.46;102132.03;12253996;19;19945;-84
2023/01/27 16:16:59;;;;;;;;;;;7.60;59.20;;;6.16;63.63;102197.19;12253470;19;19944;-83
2023/01/27 16:21:07;;;;;;;;;;;7.70;59.20;;;5.58;63.44;102121.84;12253245;19;19919;-84
2023/01/27 16:30:59;;;;;;;;;;;7.70;58.90;;;5.69;63.48;102151.06;12260818;19;19911;-84
2023/01/27 16:35:24;;;;;;;;;;;7.70;58.80;;;5.87;63.51;102168.13;12256734;19;19919;-85
2023/01/27 16:39:33;;;;;;;;;;;7.90;59.10;;;5.71;63.49;102150.16;12260266;19;19918;-85
2023/01/27 16:44:06;;;;;;;;;;;7.70;58.60;;;5.31;63.43;102093.63;12262164;19;19922;-85
2023/01/27 16:53:21;;;;;;;;;;;7.60;58.20;;;5.57;63.27;102153.81;12262785;19;20298;-84
2023/01/27 17:02:42;;;;;;;;;;;7.60;57.80;;;5.46;63.53;102157.38;12252575;19;20260;-84
2023/01/27 17:11:54;;;;;;;;;;;7.50;58.20;;;5.91;63.36;102235.50;12255788;19;19939;-84
2023/01/27 18:42:35;;;;;;;;;;;7.40;57.90;;;5.80;63.27;102290.91;12249640;19;20353;-84
2023/01/27 19:35:31;;;;;;;;;;;7.40;58.00;;;5.27;63.17;102228.38;12243350;19;19942;-86
2023/01/27 19:39:33;;;;;;;;;;;7.40;57.90;;;5.58;63.07;102287.66;12249753;19;19919;-86
2023/01/27 20:12:12;;;;;;;;;;;;;;;;;;;;;
2023/01/27 20:25:36;;;;;;;;;;;7.00;57.50;;;4.84;63.00;102257.19;12242321;19;19919;-83
2023/01/27 20:29:53;;;;;;;;;;;6.90;57.30;;;5.36;63.04;102349.16;12244247;19;19923;-84
2023/01/27 20:34:21;;;;;;;;;;;6.90;57.50;;;4.92;62.77;102277.84;12242477;19;19938;-84
2023/01/27 20:39:37;;;;;;;;;;;;;;;;;;;;;
2023/01/27 20:43:57;;;;;;;;;;;;;;;;;;;;;
2023/01/27 21:24:03;;;;;;;;;;;6.60;57.30;;;4.78;62.69;102335.72;12250186;19;20349;-83
2023/01/27 21:28:04;;;;;;;;;;;6.40;57.10;;;4.75;62.63;102337.44;12250453;19;19915;-84
2023/01/27 21:32:09;;;;;;;;;;;6.50;57.30;;;4.30;62.70;102261.78;12260062;19;20394;-84
2023/01/27 21:36:12;;;;;;;;;;;6.50;57.40;;;4.22;62.63;102261.81;12256752;19;19914;-84
2023/01/27 21:40:40;;;;;;;;;;;6.50;57.50;;;4.16;62.63;102248.94;12256796;19;19939;-84
2023/01/27 21:49:01;;;;;;;;;;;6.60;57.50;;;4.68;62.63;102352.16;12261784;19;19919;-84
2023/01/27 21:53:38;;;;;;;;;;;6.30;57.50;;;4.31;62.61;102294.53;12258688;19;19929;-84
2023/01/27 21:57:39;;;;;;;;;;;6.30;57.60;;;4.12;62.55;102267.88;12256825;19;19911;-84
2023/01/27 22:01:43;;;;;;;;;;;6.20;57.70;;;4.69;62.81;102376.28;12257317;19;19943;-84
2023/01/27 22:05:55;;;;;;;;;;;6.30;57.70;;;4.00;62.62;102268.78;12257417;19;19919;-85
2023/01/27 22:10:02;;;;;;;;;;;6.20;57.70;;;3.83;62.67;102247.28;12259497;19;20325;-84
2023/01/27 22:14:09;;;;;;;;;;;6.20;57.70;;;4.04;62.76;102274.81;12256684;19;20325;-84
2023/01/27 22:18:14;;;;;;;;;;;6.40;57.90;;;4.07;62.76;102292.88;12252170;19;19907;-83
2023/01/27 22:22:17;;;;;;;;;;;6.40;57.80;;;4.04;62.71;102290.31;12255030;19;19918;-84
2023/01/27 22:26:24;;;;;;;;;;;6.10;57.90;;;4.18;62.61;102325.59;12254213;19;19910;-84
2023/01/27 22:30:33;;;;;;;;;;;6.00;57.70;;;3.76;62.44;102269.72;12255322;19;20320;-84
2023/01/27 22:34:43;;;;;;;;;;;5.90;57.70;;;3.89;62.81;102292.09;12253396;19;20348;-84
2023/01/27 22:38:55;;;;;;;;;;;6.10;57.90;;;3.71;62.75;102267.13;12254909;19;19919;-84
2023/01/27 22:43:09;;;;;;;;;;;;;;;;;;;;;
2023/01/27 22:47:13;;;;;;;;;;;5.90;57.70;;;3.74;62.63;102287.78;12250969;19;19922;-84
2023/01/27 22:51:17;;;;;;;;;;;5.80;57.40;;;3.52;62.44;102255.97;12253975;19;20240;-84
2023/01/27 22:55:24;;;;;;;;;;;5.70;57.50;;;3.61;62.57;102277.47;12251038;19;19930;-83
2023/01/27 23:05:18;;;;;;;;;;;;;;;;;;;;;
2023/01/27 23:41:23;;;;;;;;;;;5.30;57.70;;;3.05;62.53;102228.47;12248559;19;19902;-83
2023/01/27 23:45:38;;;;;;;;;;;5.40;57.70;;;3.25;62.64;102268.91;12248139;19;19923;-83
2023/01/27 23:49:42;;;;;;;;;;;5.30;57.90;;;3.22;62.70;102266.31;12250284;19;19915;-83
2023/01/27 23:53:46;;;;;;;;;;;5.30;57.70;;;3.15;62.77;102259.44;12249092;19;19923;-83
2023/01/27 23:57:48;;;;;;;;;;;5.20;57.60;;;3.01;62.69;102233.63;12245747;19;19943;-83
